sensor_id;sensor_type;location;lat;lon;timestamp;temperature;humidity
7163;DHT22;3623;47.098;15.446;2023-02-28T00:01:05;-0.50;99.90
7163;DHT22;3623;47.098;15.446;2023-02-28T00:03:32;-0.60;99.90
7163;DHT22;3623;47.098;15.446;2023-02-28T00:06:01;-0.50;99.90
7163;DHT22;3623;47.098;15.446;2023-02-28T00:08:29;-0.50;99.90
7163;DHT22;3623;47.098;15.446;2023-02-28T00:11:01;-0.50;99.90
7163;DHT22;3623;47.098;15.446;2023-02-28T00:13:28;-0.20;99.90
7163;DHT22;3623;47.098;15.446;2023-02-28T00:16:00;-0.60;99.90
7163;DHT22;3623;47.098;15.446;2023-02-28T00:18:27;-0.60;99.90
7163;DHT22;3623;47.098;15.446;2023-02-28T00:20:54;-0.70;99.90
7163;DHT22;3623;47.098;15.446;2023-02-28T00:23:21;-0.70;99.90
7163;DHT22;3623;47.098;15.446;2023-02-28T00:25:50;-0.60;99.90
7163;DHT22;3623;47.098;15.446;2023-02-28T00:28:17;-0.70;99.90
7163;DHT22;3623;47.098;15.446;2023-02-28T00:30:44;-0.70;99.90
7163;DHT22;3623;47.098;15.446;2023-02-28T00:33:12;-0.80;99.90
7163;DHT22;3623;47.098;15.446;2023-02-28T00:35:39;-0.70;99.90
7163;DHT22;3623;47.098;15.446;2023-02-28T00:38:06;-0.70;99.90
7163;DHT22;3623;47.098;15.446;2023-02-28T00:40:33;-0.70;99.90
7163;DHT22;3623;47.098;15.446;2023-02-28T00:43:02;-0.70;99.90
7163;DHT22;3623;47.098;15.446;2023-02-28T00:45:30;-0.70;99.90
7163;DHT22;3623;47.098;15.446;2023-02-28T00:47:57;-0.40;99.90
7163;DHT22;3623;47.098;15.446;2023-02-28T00:50:24;-0.60;99.90
7163;DHT22;3623;47.098;15.446;2023-02-28T00:52:51;-0.60;99.90
7163;DHT22;3623;47.098;15.446;2023-02-28T00:55:18;-0.60;99.90
7163;DHT22;3623;47.098;15.446;2023-02-28T00:57:45;-0.50;99.90
7163;DHT22;3623;47.098;15.446;2023-02-28T01:00:15;-0.50;99.90
7163;DHT22;3623;47.098;15.446;2023-02-28T01:02:42;-0.50;99.90
7163;DHT22;3623;47.098;15.446;2023-02-28T01:05:09;-0.60;99.90
7163;DHT22;3623;47.098;15.446;2023-02-28T01:07:36;-0.50;99.90
7163;DHT22;3623;47.098;15.446;2023-02-28T01:10:04;-0.50;99.90
7163;DHT22;3623;47.098;15.446;2023-02-28T01:12:32;-0.60;99.90
7163;DHT22;3623;47.098;15.446;2023-02-28T01:14:59;-0.50;99.90
7163;DHT22;3623;47.098;15.446;2023-02-28T01:17:27;-0.40;99.90
7163;DHT22;3623;47.098;15.446;2023-02-28T01:19:54;-0.50;99.90
7163;DHT22;3623;47.098;15.446;2023-02-28T01:22:22;-0.10;99.90
7163;DHT22;3623;47.098;15.446;2023-02-28T01:24:49;-0.50;99.90
7163;DHT22;3623;47.098;15.446;2023-02-28T01:27:16;-0.50;99.90
7163;DHT22;3623;47.098;15.446;2023-02-28T01:29:43;-0.50;99.90
7163;DHT22;3623;47.098;15.446;2023-02-28T01:32:10;-0.50;99.90
7163;DHT22;3623;47.098;15.446;2023-02-28T01:34:38;0.40;99.90
7163;DHT22;3623;47.098;15.446;2023-02-28T01:37:05;-0.50;99.90
7163;DHT22;3623;47.098;15.446;2023-02-28T01:39:32;-0.50;99.90
7163;DHT22;3623;47.098;15.446;2023-02-28T01:41:59;-0.50;99.90
7163;DHT22;3623;47.098;15.446;2023-02-28T01:44:57;-0.50;99.90
7163;DHT22;3623;47.098;15.446;2023-02-28T01:47:27;-0.50;99.90
7163;DHT22;3623;47.098;15.446;2023-02-28T01:49:57;-0.50;99.90
7163;DHT22;3623;47.098;15.446;2023-02-28T01:52:25;0.30;99.90
7163;DHT22;3623;47.098;15.446;2023-02-28T01:54:55;-0.40;99.90
7163;DHT22;3623;47.098;15.446;2023-02-28T01:57:26;-0.40;99.90
7163;DHT22;3623;47.098;15.446;2023-02-28T01:59:57;0.20;99.90
7163;DHT22;3623;47.098;15.446;2023-02-28T02:02:25;-0.40;99.90
7163;DHT22;3623;47.098;15.446;2023-02-28T02:04:56;-0.30;99.90
7163;DHT22;3623;47.098;15.446;2023-02-28T02:07:30;0.50;99.90
7163;DHT22;3623;47.098;15.446;2023-02-28T02:10:03;-0.30;99.90
7163;DHT22;3623;47.098;15.446;2023-02-28T02:12:41;-0.40;99.90
7163;DHT22;3623;47.098;15.446;2023-02-28T02:15:12;-0.40;99.90
7163;DHT22;3623;47.098;15.446;2023-02-28T02:17:45;-0.40;99.90
7163;DHT22;3623;47.098;15.446;2023-02-28T02:20:47;0.20;99.90
7163;DHT22;3623;47.098;15.446;2023-02-28T02:26:58;-0.30;99.90
7163;DHT22;3623;47.098;15.446;2023-02-28T02:29:59;-0.20;99.90
7163;DHT22;3623;47.098;15.446;2023-02-28T02:32:46;-0.40;99.90
7163;DHT22;3623;47.098;15.446;2023-02-28T02:35:21;-0.50;99.90
7163;DHT22;3623;47.098;15.446;2023-02-28T02:37:54;-0.40;99.90
7163;DHT22;3623;47.098;15.446;2023-02-28T02:40:27;-0.30;99.90
7163;DHT22;3623;47.098;15.446;2023-02-28T02:43:02;-0.20;99.90
7163;DHT22;3623;47.098;15.446;2023-02-28T02:45:34;-0.30;99.90
7163;DHT22;3623;47.098;15.446;2023-02-28T02:48:06;-0.40;99.90
7163;DHT22;3623;47.098;15.446;2023-02-28T02:50:38;-0.30;99.90
7163;DHT22;3623;47.098;15.446;2023-02-28T02:53:08;-0.40;99.90
7163;DHT22;3623;47.098;15.446;2023-02-28T02:55:39;-0.40;99.90
7163;DHT22;3623;47.098;15.446;2023-02-28T02:58:10;-0.40;99.90
7163;DHT22;3623;47.098;15.446;2023-02-28T03:00:42;-0.30;99.90
7163;DHT22;3623;47.098;15.446;2023-02-28T03:03:11;-0.60;99.90
7163;DHT22;3623;47.098;15.446;2023-02-28T03:05:44;-0.20;99.90
7163;DHT22;3623;47.098;15.446;2023-02-28T03:08:13;-0.40;99.90
7163;DHT22;3623;47.098;15.446;2023-02-28T03:10:41;-0.40;99.90
7163;DHT22;3623;47.098;15.446;2023-02-28T03:13:35;-0.30;99.90
7163;DHT22;3623;47.098;15.446;2023-02-28T03:16:33;-0.20;99.90
7163;DHT22;3623;47.098;15.446;2023-02-28T03:19:23;-0.40;99.90
7163;DHT22;3623;47.098;15.446;2023-02-28T03:22:01;-0.40;99.90
7163;DHT22;3623;47.098;15.446;2023-02-28T03:24:34;-0.40;99.90
7163;DHT22;3623;47.098;15.446;2023-02-28T03:27:10;-0.20;99.90
7163;DHT22;3623;47.098;15.446;2023-02-28T03:29:41;-0.50;99.90
7163;DHT22;3623;47.098;15.446;2023-02-28T03:32:16;-0.30;99.90
7163;DHT22;3623;47.098;15.446;2023-02-28T03:34:50;-0.40;99.90
7163;DHT22;3623;47.098;15.446;2023-02-28T03:37:23;-0.30;99.90
7163;DHT22;3623;47.098;15.446;2023-02-28T03:39:54;-0.40;99.90
7163;DHT22;3623;47.098;15.446;2023-02-28T03:42:26;-0.40;99.90
7163;DHT22;3623;47.098;15.446;2023-02-28T03:44:57;-0.30;99.90
7163;DHT22;3623;47.098;15.446;2023-02-28T03:47:28;-0.40;99.90
7163;DHT22;3623;47.098;15.446;2023-02-28T03:50:03;-0.50;99.90
7163;DHT22;3623;47.098;15.446;2023-02-28T03:52:35;-0.40;99.90
7163;DHT22;3623;47.098;15.446;2023-02-28T03:55:08;-0.50;99.90
7163;DHT22;3623;47.098;15.446;2023-02-28T03:57:39;-0.30;99.90
7163;DHT22;3623;47.098;15.446;2023-02-28T04:00:11;-0.40;99.90
7163;DHT22;3623;47.098;15.446;2023-02-28T04:02:39;-0.40;99.90
7163;DHT22;3623;47.098;15.446;2023-02-28T04:05:07;-0.40;99.90
7163;DHT22;3623;47.098;15.446;2023-02-28T04:07:36;-0.40;99.90
7163;DHT22;3623;47.098;15.446;2023-02-28T04:10:04;-0.40;99.90
7163;DHT22;3623;47.098;15.446;2023-02-28T04:12:31;-0.40;99.90
7163;DHT22;3623;47.098;15.446;2023-02-28T04:14:58;-0.50;99.90
7163;DHT22;3623;47.098;15.446;2023-02-28T04:17:25;-0.40;99.90
7163;DHT22;3623;47.098;15.446;2023-02-28T04:19:52;-0.50;99.90
7163;DHT22;3623;47.098;15.446;2023-02-28T04:22:22;-0.40;99.90
7163;DHT22;3623;47.098;15.446;2023-02-28T04:24:52;-0.50;99.90
7163;DHT22;3623;47.098;15.446;2023-02-28T04:27:20;-0.40;99.90
7163;DHT22;3623;47.098;15.446;2023-02-28T04:29:47;-0.40;99.90
7163;DHT22;3623;47.098;15.446;2023-02-28T04:32:14;-0.50;99.90
7163;DHT22;3623;47.098;15.446;2023-02-28T04:34:41;-0.40;99.90
7163;DHT22;3623;47.098;15.446;2023-02-28T04:37:08;-0.40;99.90
7163;DHT22;3623;47.098;15.446;2023-02-28T04:39:36;-0.50;99.90
7163;DHT22;3623;47.098;15.446;2023-02-28T04:42:04;-0.40;99.90
7163;DHT22;3623;47.098;15.446;2023-02-28T04:44:31;0.10;99.90
7163;DHT22;3623;47.098;15.446;2023-02-28T04:46:58;-0.50;99.90
7163;DHT22;3623;47.098;15.446;2023-02-28T04:49:26;0.00;99.90
7163;DHT22;3623;47.098;15.446;2023-02-28T04:51:53;-0.50;99.90
7163;DHT22;3623;47.098;15.446;2023-02-28T04:54:20;-0.40;99.90
7163;DHT22;3623;47.098;15.446;2023-02-28T04:56:47;-0.60;99.90
7163;DHT22;3623;47.098;15.446;2023-02-28T04:59:17;-0.50;99.90
7163;DHT22;3623;47.098;15.446;2023-02-28T05:01:46;-0.50;99.90
7163;DHT22;3623;47.098;15.446;2023-02-28T05:04:14;-0.50;99.90
7163;DHT22;3623;47.098;15.446;2023-02-28T05:06:41;-0.50;99.90
7163;DHT22;3623;47.098;15.446;2023-02-28T05:09:08;-0.50;99.90
7163;DHT22;3623;47.098;15.446;2023-02-28T05:11:37;-0.40;99.90
7163;DHT22;3623;47.098;15.446;2023-02-28T05:14:06;-0.40;99.90
7163;DHT22;3623;47.098;15.446;2023-02-28T05:16:35;-0.40;99.90
7163;DHT22;3623;47.098;15.446;2023-02-28T05:19:02;0.30;99.90
7163;DHT22;3623;47.098;15.446;2023-02-28T05:21:30;-0.10;99.90
7163;DHT22;3623;47.098;15.446;2023-02-28T05:23:59;-0.40;99.90
7163;DHT22;3623;47.098;15.446;2023-02-28T05:26:27;-0.40;99.90
7163;DHT22;3623;47.098;15.446;2023-02-28T05:28:54;-0.40;99.90
7163;DHT22;3623;47.098;15.446;2023-02-28T05:31:22;-0.40;99.90
7163;DHT22;3623;47.098;15.446;2023-02-28T05:33:50;-0.50;99.90
7163;DHT22;3623;47.098;15.446;2023-02-28T05:36:18;-0.40;99.90
7163;DHT22;3623;47.098;15.446;2023-02-28T05:38:47;-0.30;99.90
7163;DHT22;3623;47.098;15.446;2023-02-28T05:41:15;-0.40;99.90
7163;DHT22;3623;47.098;15.446;2023-02-28T05:43:42;-0.40;99.90
7163;DHT22;3623;47.098;15.446;2023-02-28T05:46:10;-0.40;99.90
7163;DHT22;3623;47.098;15.446;2023-02-28T05:48:39;-0.30;99.90
7163;DHT22;3623;47.098;15.446;2023-02-28T05:51:08;-0.40;99.90
7163;DHT22;3623;47.098;15.446;2023-02-28T05:53:36;-0.40;99.90
7163;DHT22;3623;47.098;15.446;2023-02-28T05:56:04;-0.40;99.90
7163;DHT22;3623;47.098;15.446;2023-02-28T05:58:31;-0.40;99.90
7163;DHT22;3623;47.098;15.446;2023-02-28T06:01:00;-0.40;99.90
7163;DHT22;3623;47.098;15.446;2023-02-28T06:03:28;-0.40;99.90
7163;DHT22;3623;47.098;15.446;2023-02-28T06:05:55;-0.30;99.90
7163;DHT22;3623;47.098;15.446;2023-02-28T06:08:24;-0.20;99.90
7163;DHT22;3623;47.098;15.446;2023-02-28T06:10:51;-0.40;99.90
7163;DHT22;3623;47.098;15.446;2023-02-28T06:13:18;-0.30;99.90
7163;DHT22;3623;47.098;15.446;2023-02-28T06:15:46;-0.30;99.90
7163;DHT22;3623;47.098;15.446;2023-02-28T06:18:13;-0.30;99.90
7163;DHT22;3623;47.098;15.446;2023-02-28T06:20:40;0.30;99.90
7163;DHT22;3623;47.098;15.446;2023-02-28T06:23:09;-0.50;99.90
7163;DHT22;3623;47.098;15.446;2023-02-28T06:25:37;-0.50;99.90
7163;DHT22;3623;47.098;15.446;2023-02-28T06:28:04;-0.30;99.90
7163;DHT22;3623;47.098;15.446;2023-02-28T06:30:31;-0.40;99.90
7163;DHT22;3623;47.098;15.446;2023-02-28T06:32:59;-0.30;99.90
7163;DHT22;3623;47.098;15.446;2023-02-28T06:35:26;-0.40;99.90
7163;DHT22;3623;47.098;15.446;2023-02-28T06:37:53;-0.40;99.90
7163;DHT22;3623;47.098;15.446;2023-02-28T06:40:20;-0.50;99.90
7163;DHT22;3623;47.098;15.446;2023-02-28T06:42:49;-0.30;99.90
7163;DHT22;3623;47.098;15.446;2023-02-28T06:45:16;-0.30;99.90
7163;DHT22;3623;47.098;15.446;2023-02-28T06:47:43;-0.40;99.90
7163;DHT22;3623;47.098;15.446;2023-02-28T06:50:11;-0.30;99.90
7163;DHT22;3623;47.098;15.446;2023-02-28T06:52:39;-0.30;99.90
7163;DHT22;3623;47.098;15.446;2023-02-28T06:55:07;-0.30;99.90
7163;DHT22;3623;47.098;15.446;2023-02-28T06:57:36;-0.20;99.90
7163;DHT22;3623;47.098;15.446;2023-02-28T07:00:07;-0.20;99.90
7163;DHT22;3623;47.098;15.446;2023-02-28T07:02:35;-0.20;99.90
7163;DHT22;3623;47.098;15.446;2023-02-28T07:05:03;0.00;99.90
7163;DHT22;3623;47.098;15.446;2023-02-28T07:07:30;-0.20;99.90
7163;DHT22;3623;47.098;15.446;2023-02-28T07:09:57;0.30;99.90
7163;DHT22;3623;47.098;15.446;2023-02-28T07:12:25;-0.20;99.90
7163;DHT22;3623;47.098;15.446;2023-02-28T07:14:52;-0.20;99.90
7163;DHT22;3623;47.098;15.446;2023-02-28T07:17:21;-0.10;99.90
7163;DHT22;3623;47.098;15.446;2023-02-28T07:19:48;0.10;99.90
7163;DHT22;3623;47.098;15.446;2023-02-28T07:22:15;0.20;99.90
7163;DHT22;3623;47.098;15.446;2023-02-28T07:24:42;0.00;99.90
7163;DHT22;3623;47.098;15.446;2023-02-28T07:27:09;0.30;99.90
7163;DHT22;3623;47.098;15.446;2023-02-28T07:29:36;0.00;99.90
7163;DHT22;3623;47.098;15.446;2023-02-28T07:32:04;0.00;99.90
7163;DHT22;3623;47.098;15.446;2023-02-28T07:34:32;0.00;99.90
7163;DHT22;3623;47.098;15.446;2023-02-28T07:36:59;0.70;99.90
7163;DHT22;3623;47.098;15.446;2023-02-28T07:39:29;0.00;99.90
7163;DHT22;3623;47.098;15.446;2023-02-28T07:41:56;-0.10;99.90
7163;DHT22;3623;47.098;15.446;2023-02-28T07:44:25;0.00;99.90
7163;DHT22;3623;47.098;15.446;2023-02-28T07:46:52;0.10;99.90
7163;DHT22;3623;47.098;15.446;2023-02-28T07:49:19;0.10;99.90
7163;DHT22;3623;47.098;15.446;2023-02-28T07:51:47;0.40;99.90
7163;DHT22;3623;47.098;15.446;2023-02-28T07:54:17;0.10;99.90
7163;DHT22;3623;47.098;15.446;2023-02-28T07:56:44;0.10;99.90
7163;DHT22;3623;47.098;15.446;2023-02-28T07:59:11;0.10;99.90
7163;DHT22;3623;47.098;15.446;2023-02-28T08:01:38;0.20;99.90
7163;DHT22;3623;47.098;15.446;2023-02-28T08:04:05;0.20;99.90
7163;DHT22;3623;47.098;15.446;2023-02-28T08:06:32;0.00;99.90
7163;DHT22;3623;47.098;15.446;2023-02-28T08:09:00;0.20;99.90
7163;DHT22;3623;47.098;15.446;2023-02-28T08:11:27;0.20;99.90
7163;DHT22;3623;47.098;15.446;2023-02-28T08:13:55;0.30;99.90
7163;DHT22;3623;47.098;15.446;2023-02-28T08:16:22;0.50;99.90
7163;DHT22;3623;47.098;15.446;2023-02-28T08:18:49;0.40;99.90
7163;DHT22;3623;47.098;15.446;2023-02-28T08:21:16;0.50;99.90
7163;DHT22;3623;47.098;15.446;2023-02-28T08:23:45;0.50;99.90
7163;DHT22;3623;47.098;15.446;2023-02-28T08:26:14;0.60;99.90
7163;DHT22;3623;47.098;15.446;2023-02-28T08:28:41;1.10;99.90
7163;DHT22;3623;47.098;15.446;2023-02-28T08:31:09;0.60;99.90
7163;DHT22;3623;47.098;15.446;2023-02-28T08:33:36;0.60;99.90
7163;DHT22;3623;47.098;15.446;2023-02-28T08:36:05;0.60;99.90
7163;DHT22;3623;47.098;15.446;2023-02-28T08:38:33;0.60;99.90
7163;DHT22;3623;47.098;15.446;2023-02-28T08:41:01;0.60;99.90
7163;DHT22;3623;47.098;15.446;2023-02-28T08:43:29;0.60;99.90
7163;DHT22;3623;47.098;15.446;2023-02-28T08:45:57;0.80;99.90
7163;DHT22;3623;47.098;15.446;2023-02-28T08:48:24;0.90;99.90
7163;DHT22;3623;47.098;15.446;2023-02-28T08:50:58;1.10;99.90
7163;DHT22;3623;47.098;15.446;2023-02-28T08:53:25;1.30;99.90
7163;DHT22;3623;47.098;15.446;2023-02-28T08:55:56;1.00;99.90
7163;DHT22;3623;47.098;15.446;2023-02-28T08:58:24;1.30;99.90
7163;DHT22;3623;47.098;15.446;2023-02-28T09:00:53;1.10;99.90
7163;DHT22;3623;47.098;15.446;2023-02-28T09:03:20;1.20;99.90
7163;DHT22;3623;47.098;15.446;2023-02-28T09:05:57;1.10;99.90
7163;DHT22;3623;47.098;15.446;2023-02-28T09:08:26;1.00;99.90
7163;DHT22;3623;47.098;15.446;2023-02-28T09:10:54;1.10;99.90
7163;DHT22;3623;47.098;15.446;2023-02-28T09:13:23;1.00;99.90
7163;DHT22;3623;47.098;15.446;2023-02-28T09:15:52;0.90;99.90
7163;DHT22;3623;47.098;15.446;2023-02-28T09:18:20;1.00;99.90
7163;DHT22;3623;47.098;15.446;2023-02-28T09:20:47;1.10;99.90
7163;DHT22;3623;47.098;15.446;2023-02-28T09:23:15;1.10;99.90
7163;DHT22;3623;47.098;15.446;2023-02-28T09:25:46;1.30;99.90
7163;DHT22;3623;47.098;15.446;2023-02-28T09:28:14;1.30;99.90
7163;DHT22;3623;47.098;15.446;2023-02-28T09:30:44;1.30;99.90
7163;DHT22;3623;47.098;15.446;2023-02-28T09:33:13;1.50;99.90
7163;DHT22;3623;47.098;15.446;2023-02-28T09:35:40;1.40;99.90
7163;DHT22;3623;47.098;15.446;2023-02-28T09:38:09;1.40;99.90
7163;DHT22;3623;47.098;15.446;2023-02-28T09:40:41;1.50;99.90
7163;DHT22;3623;47.098;15.446;2023-02-28T09:43:14;1.60;99.90
7163;DHT22;3623;47.098;15.446;2023-02-28T09:45:47;1.70;99.90
7163;DHT22;3623;47.098;15.446;2023-02-28T09:48:20;1.70;99.90
7163;DHT22;3623;47.098;15.446;2023-02-28T09:50:49;1.70;99.90
7163;DHT22;3623;47.098;15.446;2023-02-28T09:53:21;1.40;99.90
7163;DHT22;3623;47.098;15.446;2023-02-28T09:55:51;1.60;99.90
7163;DHT22;3623;47.098;15.446;2023-02-28T09:58:26;1.60;99.90
7163;DHT22;3623;47.098;15.446;2023-02-28T10:00:58;1.70;99.90
7163;DHT22;3623;47.098;15.446;2023-02-28T10:03:32;1.60;99.90
7163;DHT22;3623;47.098;15.446;2023-02-28T10:06:07;1.80;99.90
7163;DHT22;3623;47.098;15.446;2023-02-28T10:08:37;1.90;99.90
7163;DHT22;3623;47.098;15.446;2023-02-28T10:11:13;1.80;99.90
7163;DHT22;3623;47.098;15.446;2023-02-28T10:13:51;2.00;99.90
7163;DHT22;3623;47.098;15.446;2023-02-28T10:16:24;2.30;99.90
7163;DHT22;3623;47.098;15.446;2023-02-28T10:18:57;2.60;99.90
7163;DHT22;3623;47.098;15.446;2023-02-28T10:21:29;2.30;99.90
7163;DHT22;3623;47.098;15.446;2023-02-28T10:24:03;2.50;99.90
7163;DHT22;3623;47.098;15.446;2023-02-28T10:26:32;2.60;99.90
7163;DHT22;3623;47.098;15.446;2023-02-28T10:29:00;2.40;99.90
7163;DHT22;3623;47.098;15.446;2023-02-28T10:31:28;2.30;99.90
7163;DHT22;3623;47.098;15.446;2023-02-28T10:33:56;2.80;99.90
7163;DHT22;3623;47.098;15.446;2023-02-28T10:36:24;2.90;99.90
7163;DHT22;3623;47.098;15.446;2023-02-28T10:38:51;3.30;99.90
7163;DHT22;3623;47.098;15.446;2023-02-28T10:41:27;3.60;99.90
7163;DHT22;3623;47.098;15.446;2023-02-28T10:44:14;3.70;99.90
7163;DHT22;3623;47.098;15.446;2023-02-28T10:46:42;3.70;99.90
7163;DHT22;3623;47.098;15.446;2023-02-28T10:49:17;3.70;99.90
7163;DHT22;3623;47.098;15.446;2023-02-28T10:51:45;3.50;99.90
7163;DHT22;3623;47.098;15.446;2023-02-28T10:54:19;3.30;99.90
7163;DHT22;3623;47.098;15.446;2023-02-28T10:57:06;3.40;99.90
7163;DHT22;3623;47.098;15.446;2023-02-28T10:59:34;3.60;99.90
7163;DHT22;3623;47.098;15.446;2023-02-28T11:02:01;3.70;99.90
7163;DHT22;3623;47.098;15.446;2023-02-28T11:04:35;3.60;99.90
7163;DHT22;3623;47.098;15.446;2023-02-28T11:07:06;3.60;99.90
7163;DHT22;3623;47.098;15.446;2023-02-28T11:09:44;3.80;99.90
7163;DHT22;3623;47.098;15.446;2023-02-28T11:12:21;3.80;99.90
7163;DHT22;3623;47.098;15.446;2023-02-28T11:14:51;3.70;99.90
7163;DHT22;3623;47.098;15.446;2023-02-28T11:17:21;3.80;99.90
7163;DHT22;3623;47.098;15.446;2023-02-28T11:19:54;3.70;99.90
7163;DHT22;3623;47.098;15.446;2023-02-28T11:22:26;3.60;99.90
7163;DHT22;3623;47.098;15.446;2023-02-28T11:24:56;4.00;99.90
7163;DHT22;3623;47.098;15.446;2023-02-28T11:27:46;4.30;99.90
7163;DHT22;3623;47.098;15.446;2023-02-28T11:30:30;4.70;99.90
7163;DHT22;3623;47.098;15.446;2023-02-28T11:32:57;5.20;99.90
7163;DHT22;3623;47.098;15.446;2023-02-28T11:35:31;5.70;99.90
7163;DHT22;3623;47.098;15.446;2023-02-28T11:38:00;5.40;99.90
7163;DHT22;3623;47.098;15.446;2023-02-28T11:40:38;5.40;99.90
7163;DHT22;3623;47.098;15.446;2023-02-28T11:43:19;5.40;99.90
7163;DHT22;3623;47.098;15.446;2023-02-28T11:45:59;5.40;99.90
7163;DHT22;3623;47.098;15.446;2023-02-28T11:48:33;5.40;99.90
7163;DHT22;3623;47.098;15.446;2023-02-28T11:51:13;5.20;99.90
7163;DHT22;3623;47.098;15.446;2023-02-28T11:53:55;5.00;99.90
7163;DHT22;3623;47.098;15.446;2023-02-28T11:56:31;5.00;99.90
7163;DHT22;3623;47.098;15.446;2023-02-28T11:59:13;4.90;99.90
7163;DHT22;3623;47.098;15.446;2023-02-28T12:02:02;5.40;99.90
7163;DHT22;3623;47.098;15.446;2023-02-28T12:04:34;5.70;99.90
7163;DHT22;3623;47.098;15.446;2023-02-28T12:07:09;5.40;99.90
7163;DHT22;3623;47.098;15.446;2023-02-28T12:09:46;5.20;99.90
7163;DHT22;3623;47.098;15.446;2023-02-28T12:12:28;5.20;99.90
7163;DHT22;3623;47.098;15.446;2023-02-28T12:15:13;5.00;99.90
7163;DHT22;3623;47.098;15.446;2023-02-28T12:17:51;5.00;99.90
7163;DHT22;3623;47.098;15.446;2023-02-28T12:20:27;4.60;99.90
7163;DHT22;3623;47.098;15.446;2023-02-28T12:23:07;4.90;99.90
7163;DHT22;3623;47.098;15.446;2023-02-28T12:26:02;4.90;99.90
7163;DHT22;3623;47.098;15.446;2023-02-28T12:28:39;5.00;99.90
7163;DHT22;3623;47.098;15.446;2023-02-28T12:31:11;4.90;99.90
7163;DHT22;3623;47.098;15.446;2023-02-28T12:33:44;5.00;99.90
7163;DHT22;3623;47.098;15.446;2023-02-28T12:36:15;4.80;99.90
7163;DHT22;3623;47.098;15.446;2023-02-28T12:38:49;4.90;99.90
7163;DHT22;3623;47.098;15.446;2023-02-28T12:41:20;5.10;99.90
7163;DHT22;3623;47.098;15.446;2023-02-28T12:43:55;5.40;99.90
7163;DHT22;3623;47.098;15.446;2023-02-28T12:46:24;5.00;99.90
7163;DHT22;3623;47.098;15.446;2023-02-28T12:48:55;5.10;99.90
7163;DHT22;3623;47.098;15.446;2023-02-28T12:51:23;5.00;99.90
7163;DHT22;3623;47.098;15.446;2023-02-28T12:53:59;4.50;99.90
7163;DHT22;3623;47.098;15.446;2023-02-28T12:56:36;4.60;99.90
7163;DHT22;3623;47.098;15.446;2023-02-28T12:59:14;4.80;99.90
7163;DHT22;3623;47.098;15.446;2023-02-28T13:05:07;5.30;99.90
7163;DHT22;3623;47.098;15.446;2023-02-28T13:08:29;5.60;99.90
7163;DHT22;3623;47.098;15.446;2023-02-28T13:11:03;5.70;99.90
7163;DHT22;3623;47.098;15.446;2023-02-28T13:13:31;5.60;99.90
7163;DHT22;3623;47.098;15.446;2023-02-28T13:16:01;5.70;99.90
7163;DHT22;3623;47.098;15.446;2023-02-28T13:18:32;5.70;99.90
7163;DHT22;3623;47.098;15.446;2023-02-28T13:21:02;5.40;99.90
7163;DHT22;3623;47.098;15.446;2023-02-28T13:23:56;5.10;99.90
7163;DHT22;3623;47.098;15.446;2023-02-28T13:29:37;5.50;99.90
7163;DHT22;3623;47.098;15.446;2023-02-28T13:32:33;5.10;99.90
7163;DHT22;3623;47.098;15.446;2023-02-28T13:38:32;4.80;99.90
7163;DHT22;3623;47.098;15.446;2023-02-28T13:44:06;4.60;99.90
7163;DHT22;3623;47.098;15.446;2023-02-28T13:46:38;4.70;99.90
7163;DHT22;3623;47.098;15.446;2023-02-28T13:49:27;4.70;99.90
7163;DHT22;3623;47.098;15.446;2023-02-28T13:52:04;5.10;99.90
7163;DHT22;3623;47.098;15.446;2023-02-28T13:54:51;4.90;99.90
7163;DHT22;3623;47.098;15.446;2023-02-28T13:57:29;4.80;99.90
7163;DHT22;3623;47.098;15.446;2023-02-28T14:00:14;4.90;99.90
7163;DHT22;3623;47.098;15.446;2023-02-28T14:02:52;4.90;99.90
7163;DHT22;3623;47.098;15.446;2023-02-28T14:05:22;5.50;99.90
7163;DHT22;3623;47.098;15.446;2023-02-28T14:07:54;5.40;99.90
7163;DHT22;3623;47.098;15.446;2023-02-28T14:10:26;5.50;99.90
7163;DHT22;3623;47.098;15.446;2023-02-28T14:13:00;5.50;99.90
7163;DHT22;3623;47.098;15.446;2023-02-28T14:15:43;5.40;99.90
7163;DHT22;3623;47.098;15.446;2023-02-28T14:18:17;5.40;99.90
7163;DHT22;3623;47.098;15.446;2023-02-28T14:20:47;5.00;99.90
7163;DHT22;3623;47.098;15.446;2023-02-28T14:23:24;4.80;99.90
7163;DHT22;3623;47.098;15.446;2023-02-28T14:25:59;4.80;99.90
7163;DHT22;3623;47.098;15.446;2023-02-28T14:28:45;4.80;99.90
7163;DHT22;3623;47.098;15.446;2023-02-28T14:31:18;5.00;99.90
7163;DHT22;3623;47.098;15.446;2023-02-28T14:34:03;5.00;99.90
7163;DHT22;3623;47.098;15.446;2023-02-28T14:36:35;4.90;99.90
7163;DHT22;3623;47.098;15.446;2023-02-28T14:39:06;4.60;99.90
7163;DHT22;3623;47.098;15.446;2023-02-28T14:41:35;4.60;99.90
7163;DHT22;3623;47.098;15.446;2023-02-28T14:44:14;4.60;99.90
7163;DHT22;3623;47.098;15.446;2023-02-28T14:46:42;4.40;99.90
7163;DHT22;3623;47.098;15.446;2023-02-28T14:49:16;4.50;99.90
7163;DHT22;3623;47.098;15.446;2023-02-28T14:51:45;4.40;99.90
7163;DHT22;3623;47.098;15.446;2023-02-28T14:54:15;4.30;99.90
7163;DHT22;3623;47.098;15.446;2023-02-28T14:56:43;4.40;99.90
7163;DHT22;3623;47.098;15.446;2023-02-28T14:59:25;4.20;99.90
7163;DHT22;3623;47.098;15.446;2023-02-28T15:02:14;4.30;99.90
7163;DHT22;3623;47.098;15.446;2023-02-28T15:04:42;4.60;99.90
7163;DHT22;3623;47.098;15.446;2023-02-28T15:07:13;4.30;99.90
7163;DHT22;3623;47.098;15.446;2023-02-28T15:09:41;4.10;99.90
7163;DHT22;3623;47.098;15.446;2023-02-28T15:12:14;3.90;99.90
7163;DHT22;3623;47.098;15.446;2023-02-28T15:14:43;3.90;99.90
7163;DHT22;3623;47.098;15.446;2023-02-28T15:17:19;3.90;99.90
7163;DHT22;3623;47.098;15.446;2023-02-28T15:19:52;3.80;99.90
7163;DHT22;3623;47.098;15.446;2023-02-28T15:22:27;3.80;99.90
7163;DHT22;3623;47.098;15.446;2023-02-28T15:24:55;3.80;99.90
7163;DHT22;3623;47.098;15.446;2023-02-28T15:27:26;3.90;99.90
7163;DHT22;3623;47.098;15.446;2023-02-28T15:29:56;3.90;99.90
7163;DHT22;3623;47.098;15.446;2023-02-28T15:32:27;3.90;99.90
7163;DHT22;3623;47.098;15.446;2023-02-28T15:34:55;4.10;99.90
7163;DHT22;3623;47.098;15.446;2023-02-28T15:37:39;4.10;99.90
7163;DHT22;3623;47.098;15.446;2023-02-28T15:40:17;3.90;99.90
7163;DHT22;3623;47.098;15.446;2023-02-28T15:42:59;3.90;99.90
7163;DHT22;3623;47.098;15.446;2023-02-28T15:45:28;3.90;99.90
7163;DHT22;3623;47.098;15.446;2023-02-28T15:48:00;3.90;99.90
7163;DHT22;3623;47.098;15.446;2023-02-28T15:50:28;3.90;99.90
7163;DHT22;3623;47.098;15.446;2023-02-28T15:52:57;4.00;99.90
7163;DHT22;3623;47.098;15.446;2023-02-28T15:55:27;3.80;99.90
7163;DHT22;3623;47.098;15.446;2023-02-28T15:57:56;3.90;99.90
7163;DHT22;3623;47.098;15.446;2023-02-28T16:00:26;3.90;99.90
7163;DHT22;3623;47.098;15.446;2023-02-28T16:02:54;3.60;99.90
7163;DHT22;3623;47.098;15.446;2023-02-28T16:05:24;3.60;99.90
7163;DHT22;3623;47.098;15.446;2023-02-28T16:07:59;3.60;99.90
7163;DHT22;3623;47.098;15.446;2023-02-28T16:10:28;3.50;99.90
7163;DHT22;3623;47.098;15.446;2023-02-28T16:12:56;3.60;99.90
7163;DHT22;3623;47.098;15.446;2023-02-28T16:15:25;3.50;99.90
7163;DHT22;3623;47.098;15.446;2023-02-28T16:17:54;3.40;99.90
7163;DHT22;3623;47.098;15.446;2023-02-28T16:20:24;3.40;99.90
7163;DHT22;3623;47.098;15.446;2023-02-28T16:22:52;3.30;99.90
7163;DHT22;3623;47.098;15.446;2023-02-28T16:25:23;3.20;99.90
7163;DHT22;3623;47.098;15.446;2023-02-28T16:27:54;3.10;99.90
7163;DHT22;3623;47.098;15.446;2023-02-28T16:30:25;3.10;99.90
7163;DHT22;3623;47.098;15.446;2023-02-28T16:32:54;3.00;99.90
7163;DHT22;3623;47.098;15.446;2023-02-28T16:35:22;3.00;99.90
7163;DHT22;3623;47.098;15.446;2023-02-28T16:37:52;2.90;99.90